createdAt,value
2018-02-14T00:00:44.745Z,7.00
2018-02-14T00:01:44.839Z,6.30
2018-02-14T00:02:44.900Z,6.30
2018-02-14T00:03:44.822Z,6.30
2018-02-14T00:04:44.747Z,6.30
2018-02-14T00:05:44.749Z,6.30
2018-02-14T00:06:44.748Z,6.30
2018-02-14T00:07:44.820Z,6.30
2018-02-14T00:08:44.904Z,6.30
2018-02-14T00:09:44.747Z,6.30
2018-02-14T00:10:44.765Z,6.30
2018-02-14T00:11:44.906Z,6.40
2018-02-14T00:12:44.764Z,6.40
2018-02-14T00:13:44.890Z,6.40
2018-02-14T00:14:44.787Z,6.40
2018-02-14T00:15:44.849Z,6.40
2018-02-14T00:16:44.788Z,6.40
2018-02-14T00:17:44.824Z,6.40
2018-02-14T00:18:44.757Z,6.40
2018-02-14T00:19:44.877Z,6.40
2018-02-14T00:20:44.831Z,6.40
2018-02-14T00:21:44.849Z,6.00
2018-02-14T00:22:44.846Z,6.00
2018-02-14T00:23:44.762Z,6.00
2018-02-14T00:24:44.777Z,6.00
2018-02-14T00:25:44.772Z,6.00
2018-02-14T00:26:44.851Z,6.00
2018-02-14T00:27:44.781Z,6.00
2018-02-14T00:28:44.775Z,6.00
2018-02-14T00:29:44.851Z,6.00
2018-02-14T00:30:44.849Z,6.00
2018-02-14T00:31:44.852Z,7.00
2018-02-14T00:32:44.785Z,7.00
2018-02-14T00:33:44.856Z,7.00
2018-02-14T00:34:44.780Z,7.00
2018-02-14T00:35:44.855Z,7.00
2018-02-14T00:36:44.782Z,7.00
2018-02-14T00:37:44.785Z,7.00
2018-02-14T00:38:44.857Z,7.00
2018-02-14T00:39:44.783Z,7.00
2018-02-14T00:40:44.858Z,7.00
2018-02-14T00:41:44.869Z,6.99
2018-02-14T00:42:44.798Z,6.99
2018-02-14T00:43:44.868Z,6.99
2018-02-14T00:44:44.819Z,6.99
2018-02-14T00:45:44.869Z,6.99
2018-02-14T00:46:44.866Z,6.99
2018-02-14T00:47:44.804Z,6.99
2018-02-14T00:48:44.803Z,6.99
2018-02-14T00:49:44.878Z,6.99
2018-02-14T00:50:44.872Z,6.99
2018-02-14T00:51:44.901Z,6.30
2018-02-14T00:52:44.792Z,6.30
2018-02-14T00:53:44.913Z,6.30
2018-02-14T00:54:44.816Z,6.30
2018-02-14T00:55:44.883Z,6.30
2018-02-14T00:56:44.901Z,6.30
2018-02-14T00:57:44.912Z,6.30
2018-02-14T00:58:44.904Z,6.30
2018-02-14T00:59:44.912Z,6.30
2018-02-14T01:00:44.847Z,6.30
2018-02-14T01:01:44.778Z,6.40
2018-02-14T01:02:44.844Z,6.40
2018-02-14T01:03:44.888Z,6.40
2018-02-14T01:04:44.818Z,6.40
2018-02-14T01:05:44.880Z,6.40
2018-02-14T01:06:44.907Z,6.40
2018-02-14T01:07:44.861Z,6.40
2018-02-14T01:08:44.863Z,6.40
2018-02-14T01:09:44.886Z,6.40
2018-02-14T01:10:44.784Z,6.40
2018-02-14T01:11:44.881Z,5.70
2018-02-14T01:12:44.781Z,5.70
2018-02-14T01:13:44.887Z,5.70
2018-02-14T01:14:44.892Z,5.70
2018-02-14T01:15:44.917Z,5.70
2018-02-14T01:16:44.789Z,5.70
2018-02-14T01:17:44.886Z,5.70
2018-02-14T01:18:44.887Z,5.70
2018-02-14T01:19:44.926Z,5.70
2018-02-14T01:20:44.868Z,5.70
2018-02-14T01:21:44.890Z,6.99
2018-02-14T01:22:44.809Z,6.99
2018-02-14T01:23:44.813Z,6.99
2018-02-14T01:24:44.853Z,6.99
2018-02-14T01:25:44.858Z,6.99
2018-02-14T01:26:44.830Z,6.99
2018-02-14T01:27:44.927Z,6.99
2018-02-14T01:28:44.813Z,6.99
2018-02-14T01:29:44.902Z,6.99
2018-02-14T01:30:44.925Z,6.99
2018-02-14T01:31:44.922Z,7.50
2018-02-14T01:32:44.899Z,7.50
2018-02-14T01:33:44.937Z,7.50
2018-02-14T01:34:44.929Z,7.50
2018-02-14T01:35:44.846Z,7.50
2018-02-14T01:36:44.897Z,7.50
2018-02-14T01:37:44.913Z,7.50
2018-02-14T01:38:44.806Z,7.50
2018-02-14T01:39:44.871Z,7.50
2018-02-14T01:40:44.904Z,7.50
2018-02-14T01:41:44.843Z,6.90
2018-02-14T01:42:44.879Z,6.90
2018-02-14T01:43:44.841Z,6.90
2018-02-14T01:44:44.893Z,6.90
2018-02-14T01:45:44.803Z,6.90
2018-02-14T01:46:44.798Z,6.90
2018-02-14T01:47:44.899Z,6.90
2018-02-14T01:48:44.791Z,6.90
2018-02-14T01:49:44.804Z,6.90
2018-02-14T01:50:44.871Z,6.90
2018-02-14T01:51:44.839Z,7.99
2018-02-14T01:52:44.951Z,7.99
2018-02-14T01:53:44.910Z,7.99
2018-02-14T01:54:44.912Z,7.99
2018-02-14T01:55:44.842Z,7.99
2018-02-14T01:56:44.914Z,7.99
2018-02-14T01:57:44.843Z,7.99
2018-02-14T01:58:44.916Z,7.99
2018-02-14T01:59:44.914Z,7.99
2018-02-14T02:00:44.846Z,7.99
2018-02-14T02:01:44.947Z,7.10
2018-02-14T02:02:44.853Z,7.10
2018-02-14T02:03:44.917Z,7.10
2018-02-14T02:04:44.919Z,7.10
2018-02-14T02:05:44.937Z,7.10
2018-02-14T02:06:44.952Z,7.10
2018-02-14T02:07:44.978Z,7.10
2018-02-14T02:08:44.870Z,7.10
2018-02-14T02:09:44.949Z,7.10
2018-02-14T02:10:44.917Z,7.10
2018-02-14T02:11:44.850Z,6.60
2018-02-14T02:12:44.851Z,6.60
2018-02-14T02:13:44.926Z,6.60
2018-02-14T02:14:44.854Z,6.60
2018-02-14T02:15:44.930Z,6.60
2018-02-14T02:16:44.853Z,6.60
2018-02-14T02:17:44.930Z,6.60
2018-02-14T02:18:44.855Z,6.60
2018-02-14T02:19:44.930Z,6.60
2018-02-14T02:20:44.854Z,6.60
2018-02-14T02:21:44.828Z,6.40
2018-02-14T02:22:44.827Z,6.40
2018-02-14T02:23:44.925Z,6.40
2018-02-14T02:24:44.906Z,6.40
2018-02-14T02:25:44.965Z,6.40
2018-02-14T02:26:44.864Z,6.40
2018-02-14T02:27:44.989Z,6.40
2018-02-14T02:28:44.932Z,6.40
2018-02-14T02:29:44.929Z,6.40
2018-02-14T02:30:44.971Z,6.40
2018-02-14T02:31:44.910Z,7.20
2018-02-14T02:32:44.965Z,7.20
2018-02-14T02:33:44.898Z,7.20
2018-02-14T02:34:44.964Z,7.20
2018-02-14T02:35:44.964Z,7.20
2018-02-14T02:36:44.957Z,7.20
2018-02-14T02:37:44.935Z,7.20
2018-02-14T02:38:44.874Z,7.20
2018-02-14T02:39:44.854Z,7.20
2018-02-14T02:40:44.876Z,7.20
2018-02-14T02:41:44.935Z,6.90
2018-02-14T02:42:44.862Z,6.90
2018-02-14T02:43:44.932Z,6.90
2018-02-14T02:44:44.862Z,6.90
2018-02-14T02:45:44.935Z,6.90
2018-02-14T02:46:44.871Z,6.90
2018-02-14T02:47:44.937Z,6.90
2018-02-14T02:48:44.871Z,6.90
2018-02-14T02:49:44.868Z,6.90
2018-02-14T02:50:44.889Z,6.90
2018-02-14T02:51:44.909Z,5.90
2018-02-14T02:52:44.972Z,5.90
2018-02-14T02:53:44.849Z,5.90
2018-02-14T02:54:44.906Z,5.90
2018-02-14T02:55:44.981Z,5.90
2018-02-14T02:56:44.848Z,5.90
2018-02-14T02:57:44.982Z,5.90
2018-02-14T02:58:44.966Z,5.90
2018-02-14T02:59:44.948Z,5.90
2018-02-14T03:00:44.951Z,5.90
2018-02-14T03:01:44.958Z,6.10
2018-02-14T03:02:44.952Z,6.10
2018-02-14T03:03:44.889Z,6.10
2018-02-14T03:04:44.957Z,6.10
2018-02-14T03:05:44.882Z,6.10
2018-02-14T03:06:44.959Z,6.10
2018-02-14T03:07:44.908Z,6.10
2018-02-14T03:08:44.887Z,6.10
2018-02-14T03:09:44.959Z,6.10
2018-02-14T03:10:44.959Z,6.10
2018-02-14T03:11:44.871Z,6.10
2018-02-14T03:12:44.976Z,6.10
2018-02-14T03:13:44.858Z,6.10
2018-02-14T03:14:44.861Z,6.10
2018-02-14T03:15:44.953Z,6.10
2018-02-14T03:16:44.875Z,6.10
2018-02-14T03:17:44.932Z,6.10
2018-02-14T03:18:44.966Z,6.10
2018-02-14T03:19:44.898Z,6.10
2018-02-14T03:20:44.989Z,6.10
2018-02-14T03:21:44.888Z,5.80
2018-02-14T03:22:44.881Z,5.80
2018-02-14T03:23:44.866Z,5.80
2018-02-14T03:24:44.870Z,5.80
2018-02-14T03:25:44.869Z,5.80
2018-02-14T03:26:44.889Z,5.80
2018-02-14T03:27:44.872Z,5.80
2018-02-14T03:28:44.884Z,5.80
2018-02-14T03:29:44.963Z,5.80
2018-02-14T03:30:44.956Z,5.80
2018-02-14T03:31:44.970Z,6.40
2018-02-14T03:32:44.972Z,6.40
2018-02-14T03:33:44.952Z,6.40
2018-02-14T03:34:44.998Z,6.40
2018-02-14T03:35:44.949Z,6.40
2018-02-14T03:36:44.997Z,6.40
2018-02-14T03:37:45.009Z,6.40
2018-02-14T03:38:45.012Z,6.40
2018-02-14T03:39:44.912Z,6.40
2018-02-14T03:40:44.938Z,6.40
2018-02-14T03:41:44.981Z,6.90
2018-02-14T03:42:44.977Z,6.90
2018-02-14T03:43:44.907Z,6.90
2018-02-14T03:44:44.981Z,6.90
2018-02-14T03:45:44.908Z,6.90
2018-02-14T03:46:44.908Z,6.90
2018-02-14T03:47:44.911Z,6.90
2018-02-14T03:48:44.911Z,6.90
2018-02-14T03:49:44.981Z,6.90
2018-02-14T03:50:44.911Z,6.90
2018-02-14T03:51:44.918Z,6.90
2018-02-14T03:52:45.007Z,5.90
2018-02-14T03:53:45.012Z,5.90
2018-02-14T03:54:44.979Z,5.90
2018-02-14T03:55:44.946Z,5.90
2018-02-14T03:56:44.905Z,5.90
2018-02-14T03:57:45.042Z,5.90
2018-02-14T03:58:44.951Z,5.90
2018-02-14T03:59:45.013Z,5.90
2018-02-14T04:00:44.951Z,5.90
2018-02-14T04:01:44.970Z,5.90
2018-02-14T04:02:44.988Z,5.70
2018-02-14T04:03:45.052Z,5.70
2018-02-14T04:04:44.985Z,5.70
2018-02-14T04:05:44.908Z,5.70
2018-02-14T04:06:44.888Z,5.70
2018-02-14T04:07:45.006Z,5.70
2018-02-14T04:08:44.989Z,5.70
2018-02-14T04:09:44.992Z,5.70
2018-02-14T04:10:45.016Z,5.70
2018-02-14T04:11:44.969Z,5.70
2018-02-14T04:12:44.960Z,5.70
2018-02-14T04:13:45.029Z,5.70
2018-02-14T04:14:44.955Z,5.70
2018-02-14T04:15:45.061Z,5.70
2018-02-14T04:16:44.965Z,5.70
2018-02-14T04:17:45.001Z,5.70
2018-02-14T04:18:44.999Z,5.70
2018-02-14T04:19:44.975Z,5.70
2018-02-14T04:20:44.998Z,5.70
2018-02-14T04:21:44.997Z,5.70
2018-02-14T04:22:45.007Z,6.99
2018-02-14T04:23:45.004Z,6.99
2018-02-14T04:24:45.005Z,6.99
2018-02-14T04:25:44.930Z,6.99
2018-02-14T04:26:45.006Z,6.99
2018-02-14T04:27:45.006Z,6.99
2018-02-14T04:28:44.933Z,6.99
2018-02-14T04:29:45.007Z,6.99
2018-02-14T04:30:45.019Z,6.99
2018-02-14T04:31:44.944Z,6.99
2018-02-14T04:32:44.938Z,4.90
2018-02-14T04:33:44.940Z,4.90
2018-02-14T04:34:45.012Z,4.90
2018-02-14T04:35:45.010Z,4.90
2018-02-14T04:36:45.013Z,4.90
2018-02-14T04:37:44.940Z,4.90
2018-02-14T04:38:44.939Z,4.90
2018-02-14T04:39:45.013Z,4.90
2018-02-14T04:40:45.011Z,4.90
2018-02-14T04:41:44.942Z,4.90
2018-02-14T04:42:44.970Z,4.80
2018-02-14T04:43:45.032Z,4.80
2018-02-14T04:44:45.013Z,4.80
2018-02-14T04:45:45.010Z,4.80
2018-02-14T04:46:45.038Z,4.80
2018-02-14T04:47:45.012Z,4.80
2018-02-14T04:48:45.025Z,4.80
2018-02-14T04:49:44.995Z,4.80
2018-02-14T04:50:44.981Z,4.80
2018-02-14T04:51:44.915Z,4.80
2018-02-14T04:52:44.984Z,5.50
2018-02-14T04:53:44.955Z,5.50
2018-02-14T04:54:44.920Z,5.50
2018-02-14T04:55:44.937Z,5.50
2018-02-14T04:56:45.061Z,5.50
2018-02-14T04:57:44.991Z,5.50
2018-02-14T04:58:44.989Z,5.50
2018-02-14T04:59:45.001Z,5.50
2018-02-14T05:00:45.081Z,5.50
2018-02-14T05:01:44.991Z,5.50
2018-02-14T05:02:45.025Z,6.20
2018-02-14T05:03:44.927Z,6.20
2018-02-14T05:04:45.054Z,6.20
2018-02-14T05:05:45.061Z,6.20
2018-02-14T05:06:44.962Z,6.20
2018-02-14T05:07:45.000Z,6.20
2018-02-14T05:08:45.007Z,6.20
2018-02-14T05:09:45.029Z,6.20
2018-02-14T05:10:44.963Z,6.20
2018-02-14T05:11:45.087Z,6.20
2018-02-14T05:12:45.064Z,6.20
2018-02-14T05:13:45.006Z,6.20
2018-02-14T05:14:45.008Z,6.20
2018-02-14T05:15:45.033Z,6.20
2018-02-14T05:16:45.013Z,6.20
2018-02-14T05:17:45.008Z,6.20
2018-02-14T05:18:45.042Z,6.20
2018-02-14T05:19:45.064Z,6.20
2018-02-14T05:20:44.955Z,6.20
2018-02-14T05:21:45.033Z,6.20
2018-02-14T05:22:45.075Z,5.20
2018-02-14T05:23:44.956Z,5.20
2018-02-14T05:24:45.007Z,5.20
2018-02-14T05:25:45.034Z,5.20
2018-02-14T05:26:45.015Z,5.20
2018-02-14T05:27:44.972Z,5.20
2018-02-14T05:28:45.004Z,5.20
2018-02-14T05:29:44.958Z,5.20
2018-02-14T05:30:45.037Z,5.20
2018-02-14T05:31:45.070Z,5.20
2018-02-14T05:32:45.047Z,5.30
2018-02-14T05:33:44.974Z,5.30
2018-02-14T05:34:44.975Z,5.30
2018-02-14T05:35:44.977Z,5.30
2018-02-14T05:36:45.010Z,5.30
2018-02-14T05:37:44.976Z,5.30
2018-02-14T05:38:45.098Z,5.30
2018-02-14T05:39:45.052Z,5.30
2018-02-14T05:40:44.994Z,5.30
2018-02-14T05:41:44.985Z,5.30
2018-02-14T05:42:45.026Z,6.90
2018-02-14T05:43:45.092Z,6.90
2018-02-14T05:44:45.063Z,6.90
2018-02-14T05:45:45.089Z,6.90
2018-02-14T05:46:45.074Z,6.90
2018-02-14T05:47:45.057Z,6.90
2018-02-14T05:48:45.026Z,6.90
2018-02-14T05:49:44.990Z,6.90
2018-02-14T05:50:44.973Z,6.90
2018-02-14T05:51:44.978Z,6.90
2018-02-14T05:52:45.052Z,6.00
2018-02-14T05:53:44.981Z,6.00
2018-02-14T05:54:45.052Z,6.00
2018-02-14T05:55:45.049Z,6.00
2018-02-14T05:56:44.974Z,6.00
2018-02-14T05:57:45.051Z,6.00
2018-02-14T05:58:45.050Z,6.00
2018-02-14T05:59:45.056Z,6.00
2018-02-14T06:00:45.071Z,6.00
2018-02-14T06:01:45.058Z,6.00
2018-02-14T06:02:44.989Z,6.50
2018-02-14T06:03:45.034Z,6.50
2018-02-14T06:04:44.988Z,6.50
2018-02-14T06:05:44.995Z,6.50
2018-02-14T06:06:44.995Z,6.50
2018-02-14T06:07:45.067Z,6.50
2018-02-14T06:08:44.995Z,6.50
2018-02-14T06:09:44.993Z,6.50
2018-02-14T06:10:45.012Z,6.50
2018-02-14T06:11:44.996Z,6.50
2018-02-14T06:12:44.935Z,7.00
2018-02-14T06:13:44.997Z,7.00
2018-02-14T06:14:44.956Z,7.00
2018-02-14T06:15:45.004Z,7.00
2018-02-14T06:16:44.933Z,7.00
2018-02-14T06:17:44.966Z,7.00
2018-02-14T06:18:45.057Z,7.00
2018-02-14T06:19:44.941Z,7.00
2018-02-14T06:20:45.045Z,7.00
2018-02-14T06:21:45.010Z,7.00
2018-02-14T06:22:44.989Z,6.40
2018-02-14T06:23:45.070Z,6.40
2018-02-14T06:24:45.012Z,6.40
2018-02-14T06:25:45.099Z,6.40
2018-02-14T06:26:44.993Z,6.40
2018-02-14T06:27:45.048Z,6.40
2018-02-14T06:28:45.055Z,6.40
2018-02-14T06:29:45.080Z,6.40
2018-02-14T06:30:45.073Z,6.40
2018-02-14T06:31:45.053Z,6.40
2018-02-14T06:32:45.013Z,6.00
2018-02-14T06:33:45.085Z,6.00
2018-02-14T06:34:45.008Z,6.00
2018-02-14T06:35:45.083Z,6.00
2018-02-14T06:36:45.019Z,6.00
2018-02-14T06:37:45.086Z,6.00
2018-02-14T06:38:45.091Z,6.00
2018-02-14T06:39:45.016Z,6.00
2018-02-14T06:40:45.015Z,6.00
2018-02-14T06:41:45.019Z,6.00
2018-02-14T06:42:45.045Z,7.70
2018-02-14T06:43:45.082Z,7.70
2018-02-14T06:44:45.051Z,7.70
2018-02-14T06:45:45.082Z,7.70
2018-02-14T06:46:45.009Z,7.70
2018-02-14T06:47:45.087Z,7.70
2018-02-14T06:48:45.024Z,7.70
2018-02-14T06:49:45.051Z,7.70
2018-02-14T06:50:45.004Z,7.70
2018-02-14T06:51:45.096Z,7.70
2018-02-14T06:52:45.021Z,7.40
2018-02-14T06:53:45.096Z,7.40
2018-02-14T06:54:45.028Z,7.40
2018-02-14T06:55:45.094Z,7.40
2018-02-14T06:56:45.027Z,7.40
2018-02-14T06:57:45.091Z,7.40
2018-02-14T06:58:45.092Z,7.40
2018-02-14T06:59:45.102Z,7.40
2018-02-14T07:00:45.024Z,7.40
2018-02-14T07:01:45.095Z,7.40
2018-02-14T07:02:45.119Z,6.80
2018-02-14T07:03:45.128Z,6.80
2018-02-14T07:04:45.148Z,6.80
2018-02-14T07:05:45.070Z,6.80
2018-02-14T07:06:44.998Z,6.80
2018-02-14T07:07:45.071Z,6.80
2018-02-14T07:08:45.123Z,6.80
2018-02-14T07:09:45.064Z,6.80
2018-02-14T07:10:45.000Z,6.80
2018-02-14T07:11:45.080Z,6.80
2018-02-14T07:12:45.127Z,6.99
2018-02-14T07:13:45.068Z,6.99
2018-02-14T07:14:45.098Z,6.99
2018-02-14T07:15:45.125Z,6.99
2018-02-14T07:16:45.071Z,6.99
2018-02-14T07:17:45.101Z,6.99
2018-02-14T07:18:45.104Z,6.99
2018-02-14T07:19:45.027Z,6.99
2018-02-14T07:20:45.021Z,6.99
2018-02-14T07:21:45.010Z,6.99
2018-02-14T07:22:45.087Z,8.60
2018-02-14T07:23:45.009Z,8.60
2018-02-14T07:24:45.085Z,8.60
2018-02-14T07:25:45.062Z,8.60
2018-02-14T07:26:44.983Z,8.60
2018-02-14T07:27:45.001Z,8.60
2018-02-14T07:28:45.095Z,8.60
2018-02-14T07:29:45.089Z,8.60
2018-02-14T07:30:45.011Z,8.60
2018-02-14T07:31:45.042Z,8.60
2018-02-14T07:32:45.137Z,12.20
2018-02-14T07:33:45.074Z,12.20
2018-02-14T07:34:45.151Z,12.20
2018-02-14T07:35:45.144Z,12.20
2018-02-14T07:36:45.088Z,12.20
2018-02-14T07:37:45.083Z,12.20
2018-02-14T07:38:45.111Z,12.20
2018-02-14T07:39:45.039Z,12.20
2018-02-14T07:40:45.058Z,12.20
2018-02-14T07:41:45.175Z,12.20
2018-02-14T07:42:44.983Z,9.99
2018-02-14T07:43:45.011Z,9.99
2018-02-14T07:44:45.100Z,9.99
2018-02-14T07:45:45.041Z,9.99
2018-02-14T07:46:45.081Z,9.99
2018-02-14T07:47:45.053Z,9.99
2018-02-14T07:48:44.981Z,9.99
2018-02-14T07:49:45.075Z,9.99
2018-02-14T07:50:45.077Z,9.99
2018-02-14T07:51:45.054Z,9.99
2018-02-14T07:52:45.133Z,8.50
2018-02-14T07:53:45.055Z,8.50
2018-02-14T07:54:45.127Z,8.50
2018-02-14T07:55:45.056Z,8.50
2018-02-14T07:56:45.061Z,8.50
2018-02-14T07:57:45.059Z,8.50
2018-02-14T07:58:45.130Z,8.50
2018-02-14T07:59:45.063Z,8.50
2018-02-14T08:00:45.135Z,8.50
2018-02-14T08:01:45.063Z,8.50
2018-02-14T08:02:45.069Z,15.60
2018-02-14T08:03:45.031Z,15.60
2018-02-14T08:04:45.067Z,15.60
2018-02-14T08:05:45.137Z,15.60
2018-02-14T08:06:45.072Z,15.60
2018-02-14T08:07:45.135Z,15.60
2018-02-14T08:08:45.071Z,15.60
2018-02-14T08:09:45.135Z,15.60
2018-02-14T08:10:45.176Z,15.60
2018-02-14T08:11:45.072Z,15.60
2018-02-14T08:12:45.175Z,13.50
2018-02-14T08:13:45.137Z,13.50
2018-02-14T08:14:45.097Z,13.50
2018-02-14T08:15:45.076Z,13.50
2018-02-14T08:16:45.160Z,13.50
2018-02-14T08:17:45.159Z,13.50
2018-02-14T08:18:45.043Z,13.50
2018-02-14T08:19:45.141Z,13.50
2018-02-14T08:20:45.045Z,13.50
2018-02-14T08:21:45.062Z,13.50
2018-02-14T08:22:45.146Z,11.60
2018-02-14T08:23:45.148Z,11.60
2018-02-14T08:24:45.149Z,11.60
2018-02-14T08:25:45.082Z,11.60
2018-02-14T08:26:45.077Z,11.60
2018-02-14T08:27:45.152Z,11.60
2018-02-14T08:28:45.078Z,11.60
2018-02-14T08:29:45.154Z,11.60
2018-02-14T08:30:45.084Z,11.60
2018-02-14T08:31:45.164Z,11.60
2018-02-14T08:32:45.207Z,11.40
2018-02-14T08:33:45.191Z,11.40
2018-02-14T08:34:45.207Z,11.40
2018-02-14T08:35:45.056Z,11.40
2018-02-14T08:36:45.068Z,11.40
2018-02-14T08:37:45.151Z,11.40
2018-02-14T08:38:45.159Z,11.40
2018-02-14T08:39:45.156Z,11.40
2018-02-14T08:40:45.151Z,11.40
2018-02-14T08:41:45.093Z,11.40
2018-02-14T08:42:45.084Z,16.60
2018-02-14T08:43:45.157Z,16.60
2018-02-14T08:44:45.164Z,16.60
2018-02-14T08:45:45.089Z,16.60
2018-02-14T08:46:45.191Z,16.60
2018-02-14T08:47:45.050Z,16.60
2018-02-14T08:48:45.160Z,16.60
2018-02-14T08:49:45.090Z,16.60
2018-02-14T08:50:45.162Z,16.60
2018-02-14T08:51:45.096Z,16.60
2018-02-14T08:52:45.163Z,6.20
2018-02-14T08:53:45.092Z,6.20
2018-02-14T08:54:45.163Z,6.20
2018-02-14T08:55:45.164Z,6.20
2018-02-14T08:56:45.167Z,6.20
2018-02-14T08:57:45.171Z,6.20
2018-02-14T08:58:45.167Z,6.20
2018-02-14T08:59:45.095Z,6.20
2018-02-14T09:00:45.175Z,6.20
2018-02-14T09:01:45.103Z,6.20
2018-02-14T09:02:45.035Z,7.30
2018-02-14T09:03:45.152Z,7.30
2018-02-14T09:04:45.155Z,7.30
2018-02-14T09:05:45.103Z,7.30
2018-02-14T09:06:45.042Z,7.30
2018-02-14T09:07:45.148Z,7.30
2018-02-14T09:08:45.100Z,7.30
2018-02-14T09:09:45.106Z,7.30
2018-02-14T09:10:45.061Z,7.30
2018-02-14T09:11:45.062Z,7.30
2018-02-14T09:12:45.130Z,7.30
2018-02-14T09:13:45.073Z,7.30
2018-02-14T09:14:45.198Z,7.30
2018-02-14T09:15:45.193Z,7.30
2018-02-14T09:16:45.197Z,7.30
2018-02-14T09:17:45.159Z,7.30
2018-02-14T09:18:45.175Z,7.30
2018-02-14T09:19:45.135Z,7.30
2018-02-14T09:20:45.206Z,7.30
2018-02-14T09:21:45.174Z,7.30
2018-02-14T09:22:45.155Z,6.90
2018-02-14T09:23:45.184Z,6.90
2018-02-14T09:24:45.123Z,6.90
2018-02-14T09:25:45.116Z,6.90
2018-02-14T09:26:45.101Z,6.90
2018-02-14T09:27:45.220Z,6.90
2018-02-14T09:28:45.145Z,6.90
2018-02-14T09:29:45.159Z,6.90
2018-02-14T09:30:45.181Z,6.90
2018-02-14T09:31:45.152Z,6.90
2018-02-14T09:32:45.180Z,5.30
2018-02-14T09:33:45.118Z,5.30
2018-02-14T09:34:45.119Z,5.30
2018-02-14T09:35:45.183Z,5.30
2018-02-14T09:36:45.117Z,5.30
2018-02-14T09:37:45.184Z,5.30
2018-02-14T09:38:45.124Z,5.30
2018-02-14T09:39:45.186Z,5.30
2018-02-14T09:40:45.125Z,5.30
2018-02-14T09:41:45.192Z,5.30
2018-02-14T09:42:45.186Z,5.00
2018-02-14T09:43:45.122Z,5.00
2018-02-14T09:44:45.096Z,5.00
2018-02-14T09:45:45.126Z,5.00
2018-02-14T09:46:45.190Z,5.00
2018-02-14T09:47:45.195Z,5.00
2018-02-14T09:48:45.076Z,5.00
2018-02-14T09:49:45.128Z,5.00
2018-02-14T09:50:45.152Z,5.00
2018-02-14T09:51:45.124Z,5.00
2018-02-14T09:52:45.097Z,5.40
2018-02-14T09:53:45.153Z,5.40
2018-02-14T09:54:45.159Z,5.40
2018-02-14T09:55:45.099Z,5.40
2018-02-14T09:56:45.163Z,5.40
2018-02-14T09:57:45.173Z,5.40
2018-02-14T09:58:45.228Z,5.40
2018-02-14T09:59:45.221Z,5.40
2018-02-14T10:00:45.105Z,5.40
2018-02-14T10:01:45.159Z,5.40
2018-02-14T10:02:45.106Z,5.40
2018-02-14T10:03:45.243Z,5.70
2018-02-14T10:04:45.120Z,5.70
2018-02-14T10:05:45.146Z,5.70
2018-02-14T10:06:45.171Z,5.70
2018-02-14T10:07:45.128Z,5.70
2018-02-14T10:08:45.109Z,5.70
2018-02-14T10:09:45.176Z,5.70
2018-02-14T10:10:45.114Z,5.70
2018-02-14T10:11:45.245Z,5.70
2018-02-14T10:12:45.240Z,5.70
2018-02-14T10:13:45.169Z,6.50
2018-02-14T10:14:45.081Z,6.50
2018-02-14T10:15:45.199Z,6.50
2018-02-14T10:16:45.147Z,6.50
2018-02-14T10:17:45.204Z,6.50
2018-02-14T10:18:45.169Z,6.50
2018-02-14T10:19:45.117Z,6.50
2018-02-14T10:20:45.136Z,6.50
2018-02-14T10:21:45.101Z,6.50
2018-02-14T10:22:45.119Z,6.50
2018-02-14T10:23:45.254Z,5.90
2018-02-14T10:24:45.180Z,5.90
2018-02-14T10:25:45.216Z,5.90
2018-02-14T10:26:45.256Z,5.90
2018-02-14T10:27:45.233Z,5.90
2018-02-14T10:28:45.139Z,5.90
2018-02-14T10:29:45.240Z,5.90
2018-02-14T10:30:45.175Z,5.90
2018-02-14T10:31:45.196Z,5.90
2018-02-14T10:32:45.218Z,5.90
2018-02-14T10:33:45.224Z,4.60
2018-02-14T10:34:45.150Z,4.60
2018-02-14T10:35:45.155Z,4.60
2018-02-14T10:36:45.228Z,4.60
2018-02-14T10:37:45.154Z,4.60
2018-02-14T10:38:45.157Z,4.60
2018-02-14T10:39:45.167Z,4.60
2018-02-14T10:40:45.161Z,4.60
2018-02-14T10:41:45.159Z,4.60
2018-02-14T10:42:45.226Z,4.60
2018-02-14T10:43:45.129Z,5.50
2018-02-14T10:44:45.227Z,5.50
2018-02-14T10:45:45.192Z,5.50
2018-02-14T10:46:45.267Z,5.50
2018-02-14T10:47:45.186Z,5.50
2018-02-14T10:48:45.192Z,5.50
2018-02-14T10:49:45.257Z,5.50
2018-02-14T10:50:45.207Z,5.50
2018-02-14T10:51:45.168Z,5.50
2018-02-14T10:52:45.266Z,5.50
2018-02-14T10:53:45.156Z,5.50
2018-02-14T10:54:45.213Z,5.50
2018-02-14T10:55:45.137Z,5.50
2018-02-14T10:56:45.264Z,5.50
2018-02-14T10:57:45.140Z,5.50
2018-02-14T10:58:45.233Z,5.50
2018-02-14T10:59:45.157Z,5.50
2018-02-14T11:00:45.272Z,5.50
2018-02-14T11:01:45.232Z,5.50
2018-02-14T11:02:45.204Z,5.50
2018-02-14T11:03:45.247Z,5.60
2018-02-14T11:04:45.171Z,5.60
2018-02-14T11:05:45.240Z,5.60
2018-02-14T11:06:45.203Z,5.60
2018-02-14T11:07:45.128Z,5.60
2018-02-14T11:08:45.246Z,5.60
2018-02-14T11:09:45.243Z,5.60
2018-02-14T11:10:45.175Z,5.60
2018-02-14T11:11:45.244Z,5.60
2018-02-14T11:12:45.176Z,5.60
2018-02-14T11:13:45.223Z,6.40
2018-02-14T11:14:45.207Z,6.40
2018-02-14T11:15:45.151Z,6.40
2018-02-14T11:16:45.247Z,6.40
2018-02-14T11:17:45.222Z,6.40
2018-02-14T11:18:45.245Z,6.40
2018-02-14T11:19:45.152Z,6.40
2018-02-14T11:20:45.276Z,6.40
2018-02-14T11:21:45.150Z,6.40
2018-02-14T11:22:45.220Z,6.40
2018-02-14T11:23:45.157Z,6.40
2018-02-14T11:24:45.157Z,6.40
2018-02-14T11:25:45.209Z,6.40
2018-02-14T11:26:45.153Z,6.40
2018-02-14T11:27:45.253Z,6.40
2018-02-14T11:28:45.152Z,6.40
2018-02-14T11:29:45.289Z,6.40
2018-02-14T11:30:45.171Z,6.40
2018-02-14T11:31:45.230Z,6.40
2018-02-14T11:32:45.227Z,6.40
2018-02-14T11:33:45.161Z,6.30
2018-02-14T11:34:45.229Z,6.30
2018-02-14T11:35:45.220Z,6.30
2018-02-14T11:36:45.276Z,6.30
2018-02-14T11:37:45.229Z,6.30
2018-02-14T11:38:45.240Z,6.30
2018-02-14T11:39:45.297Z,6.30
2018-02-14T11:40:45.235Z,6.30
2018-02-14T11:41:45.300Z,6.30
2018-02-14T11:42:45.235Z,6.30
2018-02-14T11:43:45.294Z,6.40
2018-02-14T11:44:45.286Z,6.40
2018-02-14T11:45:45.183Z,6.40
2018-02-14T11:46:45.228Z,6.40
2018-02-14T11:47:45.283Z,6.40
2018-02-14T11:48:45.264Z,6.40
2018-02-14T11:49:45.170Z,6.40
2018-02-14T11:50:45.204Z,6.40
2018-02-14T11:51:45.171Z,6.40
2018-02-14T11:52:45.186Z,6.40
2018-02-14T11:53:45.222Z,6.00
2018-02-14T11:54:45.262Z,6.00
2018-02-14T11:55:45.156Z,6.00
2018-02-14T11:56:45.174Z,6.00
2018-02-14T11:57:45.253Z,6.00
2018-02-14T11:58:45.179Z,6.00
2018-02-14T11:59:45.262Z,6.00
2018-02-14T12:00:45.241Z,6.00
2018-02-14T12:01:45.194Z,6.00
2018-02-14T12:02:45.259Z,6.00
2018-02-14T12:03:45.169Z,5.70
2018-02-14T12:04:45.228Z,5.70
2018-02-14T12:05:45.142Z,5.70
2018-02-14T12:06:45.178Z,5.70
2018-02-14T12:07:45.259Z,5.70
2018-02-14T12:08:45.153Z,5.70
2018-02-14T12:09:45.265Z,5.70
2018-02-14T12:10:45.216Z,5.70
2018-02-14T12:11:45.240Z,5.70
2018-02-14T12:12:45.198Z,5.70
2018-02-14T12:13:45.136Z,6.90
2018-02-14T12:14:45.226Z,6.90
2018-02-14T12:15:45.137Z,6.90
2018-02-14T12:16:45.139Z,6.90
2018-02-14T12:17:45.140Z,6.90
2018-02-14T12:18:45.188Z,6.90
2018-02-14T12:19:45.233Z,6.90
2018-02-14T12:20:45.238Z,6.90
2018-02-14T12:21:45.139Z,6.90
2018-02-14T12:22:45.237Z,6.90
2018-02-14T12:23:45.212Z,8.00
2018-02-14T12:24:45.264Z,8.00
2018-02-14T12:25:45.210Z,8.00
2018-02-14T12:26:45.225Z,8.00
2018-02-14T12:27:45.267Z,8.00
2018-02-14T12:28:45.277Z,8.00
2018-02-14T12:29:45.267Z,8.00
2018-02-14T12:30:45.247Z,8.00
2018-02-14T12:31:45.249Z,8.00
2018-02-14T12:32:45.224Z,8.00
2018-02-14T12:33:45.210Z,6.70
2018-02-14T12:34:45.327Z,6.70
2018-02-14T12:35:45.329Z,6.70
2018-02-14T12:36:45.262Z,6.70
2018-02-14T12:37:45.268Z,6.70
2018-02-14T12:38:45.296Z,6.70
2018-02-14T12:39:45.328Z,6.70
2018-02-14T12:40:45.273Z,6.70
2018-02-14T12:41:45.337Z,6.70
2018-02-14T12:42:45.265Z,6.70
2018-02-14T12:43:45.205Z,6.40
2018-02-14T12:44:45.238Z,6.40
2018-02-14T12:45:45.208Z,6.40
2018-02-14T12:46:45.233Z,6.40
2018-02-14T12:47:45.191Z,6.40
2018-02-14T12:48:45.299Z,6.40
2018-02-14T12:49:45.293Z,6.40
2018-02-14T12:50:45.202Z,6.40
2018-02-14T12:51:45.189Z,6.40
2018-02-14T12:52:45.302Z,6.40
2018-02-14T12:53:45.386Z,5.70
2018-02-14T12:54:45.274Z,5.70
2018-02-14T12:55:45.257Z,5.70
2018-02-14T12:56:45.278Z,5.70
2018-02-14T12:57:45.306Z,5.70
2018-02-14T12:58:45.351Z,5.70
2018-02-14T12:59:45.327Z,5.70
2018-02-14T13:00:45.310Z,5.70
2018-02-14T13:01:45.308Z,5.70
2018-02-14T13:02:45.230Z,5.70
2018-02-14T13:03:45.209Z,5.10
2018-02-14T13:04:45.199Z,5.10
2018-02-14T13:05:45.292Z,5.10
2018-02-14T13:06:45.188Z,5.10
2018-02-14T13:07:45.301Z,5.10
2018-02-14T13:08:45.265Z,5.10
2018-02-14T13:09:45.305Z,5.10
2018-02-14T13:10:45.224Z,5.10
2018-02-14T13:11:45.198Z,5.10
2018-02-14T13:12:45.285Z,5.10
2018-02-14T13:13:45.222Z,5.30
2018-02-14T13:14:45.296Z,5.30
2018-02-14T13:15:45.314Z,5.30
2018-02-14T13:16:45.317Z,5.30